createdAt,value
2019-02-18T00:00:45.939Z,18.17
2019-02-18T00:03:15.644Z,16.80
2019-02-18T00:05:45.154Z,17.80
2019-02-18T00:08:14.596Z,16.27
2019-02-18T00:10:44.052Z,17.13
2019-02-18T00:13:13.486Z,18.63
2019-02-18T00:15:43.035Z,18.03
2019-02-18T00:18:12.558Z,17.77
2019-02-18T00:20:42.190Z,15.10
2019-02-18T00:23:11.623Z,16.53
2019-02-18T00:25:41.082Z,14.07
2019-02-18T00:28:10.516Z,17.27
2019-02-18T00:30:39.972Z,15.93
2019-02-18T00:33:09.412Z,16.10
2019-02-18T00:35:38.935Z,16.07
2019-02-18T00:38:08.384Z,14.27
2019-02-18T00:40:37.838Z,14.70
2019-02-18T00:43:07.291Z,17.83
2019-02-18T00:45:36.754Z,18.20
2019-02-18T00:48:06.186Z,17.83
2019-02-18T00:50:35.640Z,15.03
2019-02-18T00:53:05.159Z,17.70
2019-02-18T00:55:34.548Z,15.63
2019-02-18T00:58:04.002Z,15.07
2019-02-18T01:00:33.454Z,15.03
2019-02-18T01:03:02.967Z,16.50
2019-02-18T01:05:32.450Z,16.27
2019-02-18T01:08:01.907Z,16.97
2019-02-18T01:10:31.431Z,16.70
2019-02-18T01:13:00.866Z,14.70
2019-02-18T01:15:30.323Z,14.30
2019-02-18T01:17:59.778Z,15.17
2019-02-18T01:20:29.231Z,13.87
2019-02-18T01:22:58.694Z,19.83
2019-02-18T01:25:28.151Z,16.77
2019-02-18T01:27:57.581Z,20.07
2019-02-18T01:30:27.039Z,14.87
2019-02-18T01:32:56.574Z,15.73
2019-02-18T01:35:26.049Z,13.53
2019-02-18T01:37:55.475Z,16.97
2019-02-18T01:40:24.903Z,15.53
2019-02-18T01:42:54.363Z,14.83
2019-02-18T01:45:23.822Z,12.17
2019-02-18T01:47:53.290Z,13.27
2019-02-18T01:50:22.716Z,16.13
2019-02-18T01:52:52.179Z,16.00
2019-02-18T01:55:21.612Z,19.93
2019-02-18T01:57:51.090Z,13.30
2019-02-18T02:00:20.525Z,16.03
2019-02-18T02:02:49.980Z,15.63
2019-02-18T02:05:19.556Z,13.57
2019-02-18T02:07:55.940Z,14.43
2019-02-18T02:10:20.074Z,16.37
2019-02-18T02:12:49.538Z,18.87
2019-02-18T02:15:22.270Z,17.10
2019-02-18T02:17:51.723Z,17.10
2019-02-18T02:20:22.235Z,23.53
2019-02-18T02:22:51.710Z,14.63
2019-02-18T02:25:21.158Z,19.27
2019-02-18T02:27:50.639Z,18.93
2019-02-18T02:30:20.075Z,21.43
2019-02-18T02:32:49.535Z,22.33
2019-02-18T02:35:18.973Z,16.87
2019-02-18T02:37:48.426Z,16.53
2019-02-18T02:40:17.859Z,21.13
2019-02-18T02:42:47.307Z,18.77
2019-02-18T02:45:16.751Z,20.33
2019-02-18T02:47:46.214Z,20.40
2019-02-18T02:50:16.140Z,22.60
2019-02-18T02:52:45.606Z,18.93
2019-02-18T02:55:15.060Z,18.93
2019-02-18T02:57:44.535Z,18.60
2019-02-18T03:00:16.934Z,17.17
2019-02-18T03:02:46.389Z,17.57
2019-02-18T03:05:15.897Z,20.60
2019-02-18T03:07:45.358Z,16.87
2019-02-18T03:10:14.861Z,19.17
2019-02-18T03:12:44.306Z,18.73
2019-02-18T03:15:18.402Z,18.53
2019-02-18T03:17:47.868Z,17.43
2019-02-18T03:20:17.310Z,20.97
2019-02-18T03:22:46.759Z,17.70
2019-02-18T03:25:19.271Z,17.90
2019-02-18T03:27:54.495Z,18.10
2019-02-18T03:30:45.206Z,19.00
2019-02-18T03:33:17.862Z,17.30
2019-02-18T03:35:47.298Z,14.60
2019-02-18T03:38:16.761Z,16.43
2019-02-18T03:40:46.187Z,14.43
2019-02-18T03:43:15.651Z,13.97
2019-02-18T03:45:45.076Z,16.67
2019-02-18T03:48:14.539Z,16.00
2019-02-18T03:50:43.964Z,14.80
2019-02-18T03:53:13.429Z,14.33
2019-02-18T03:55:43.015Z,14.87
2019-02-18T03:58:13.543Z,13.87
2019-02-18T04:00:43.444Z,14.03
2019-02-18T04:03:12.919Z,14.17
2019-02-18T04:05:42.340Z,13.80
2019-02-18T04:08:11.796Z,14.90
2019-02-18T04:10:41.231Z,15.23
2019-02-18T04:13:10.686Z,12.73
2019-02-18T04:15:40.123Z,19.47
2019-02-18T04:18:09.575Z,18.00
2019-02-18T04:20:39.020Z,17.63
2019-02-18T04:23:08.474Z,18.37
2019-02-18T04:25:37.904Z,14.87
2019-02-18T04:28:07.365Z,17.10
2019-02-18T04:30:36.798Z,16.63
2019-02-18T04:33:06.255Z,16.07
2019-02-18T04:35:35.680Z,13.73
2019-02-18T04:38:05.135Z,16.10
2019-02-18T04:40:34.568Z,15.90
2019-02-18T04:43:04.019Z,14.73
2019-02-18T04:45:33.521Z,19.43
2019-02-18T04:48:02.979Z,14.97
2019-02-18T04:50:32.416Z,21.83
2019-02-18T04:53:01.873Z,17.03
2019-02-18T04:55:31.303Z,15.93
2019-02-18T04:58:00.784Z,16.17
2019-02-18T05:00:30.207Z,18.17
2019-02-18T05:02:59.664Z,20.30
2019-02-18T05:05:29.090Z,18.03
2019-02-18T05:07:58.569Z,18.43
2019-02-18T05:10:28.002Z,15.33
2019-02-18T05:12:57.459Z,22.37
2019-02-18T05:15:27.224Z,22.53
2019-02-18T05:17:56.682Z,18.57
2019-02-18T05:20:26.143Z,20.33
2019-02-18T05:22:55.583Z,20.00
2019-02-18T05:25:25.025Z,21.73
2019-02-18T05:27:54.487Z,18.27
2019-02-18T05:30:23.924Z,17.93
2019-02-18T05:32:53.389Z,14.77
2019-02-18T05:35:22.823Z,18.73
2019-02-18T05:37:52.295Z,21.03
2019-02-18T05:40:21.735Z,21.43
2019-02-18T05:42:51.196Z,23.67
2019-02-18T05:45:20.632Z,20.30
2019-02-18T05:47:50.101Z,24.10
2019-02-18T05:50:19.535Z,20.77
2019-02-18T05:52:49.070Z,21.73
2019-02-18T05:55:18.507Z,18.63
2019-02-18T05:57:48.943Z,19.80
2019-02-18T06:00:18.408Z,18.70
2019-02-18T06:02:47.823Z,20.13
2019-02-18T06:05:17.284Z,19.40
2019-02-18T06:07:46.715Z,25.93
2019-02-18T06:10:17.117Z,17.67
2019-02-18T06:12:46.612Z,18.67
2019-02-18T06:15:16.075Z,18.93
2019-02-18T06:17:45.512Z,19.10
2019-02-18T06:20:14.954Z,19.53
2019-02-18T06:22:44.324Z,23.97
2019-02-18T06:25:13.815Z,21.90
2019-02-18T06:27:43.239Z,19.53
2019-02-18T06:30:12.758Z,21.17
2019-02-18T06:32:42.207Z,20.33
2019-02-18T06:35:11.682Z,23.13
2019-02-18T06:37:41.113Z,18.33
2019-02-18T06:40:10.643Z,19.07
2019-02-18T06:42:40.079Z,20.80
2019-02-18T06:45:29.847Z,20.77
2019-02-18T06:48:00.926Z,20.13
2019-02-18T06:50:31.458Z,21.50
2019-02-18T06:53:00.901Z,20.20
2019-02-18T06:55:30.360Z,21.17
2019-02-18T06:58:01.455Z,25.77
2019-02-18T07:00:41.854Z,21.70
2019-02-18T07:03:15.487Z,24.90
2019-02-18T07:05:46.592Z,20.83
2019-02-18T07:08:17.660Z,23.70
2019-02-18T07:10:48.760Z,20.03
2019-02-18T07:13:18.193Z,21.60
2019-02-18T07:15:47.656Z,19.90
2019-02-18T07:18:17.082Z,20.97
2019-02-18T07:20:46.552Z,24.90
2019-02-18T07:23:16.122Z,27.17
2019-02-18T07:25:45.558Z,21.67
2019-02-18T07:28:15.003Z,22.13
2019-02-18T07:30:44.471Z,28.83
2019-02-18T07:33:13.919Z,23.30
2019-02-18T07:35:43.359Z,19.37
2019-02-18T07:38:12.797Z,22.87
2019-02-18T07:40:42.267Z,22.77
2019-02-18T07:43:11.704Z,25.30
2019-02-18T07:45:41.159Z,21.23
2019-02-18T07:48:10.596Z,23.13
2019-02-18T07:50:40.048Z,30.53
2019-02-18T07:53:09.603Z,25.70
2019-02-18T07:55:39.071Z,23.57
2019-02-18T07:58:08.508Z,21.23
2019-02-18T08:00:37.977Z,21.13
2019-02-18T08:03:07.402Z,17.57
2019-02-18T08:05:36.860Z,18.73
2019-02-18T08:08:06.299Z,20.13
2019-02-18T08:10:35.755Z,21.97
2019-02-18T08:13:05.195Z,18.10
2019-02-18T08:15:34.651Z,15.67
2019-02-18T08:18:04.080Z,18.73
2019-02-18T08:20:33.540Z,20.97
2019-02-18T08:23:03.045Z,17.87
2019-02-18T08:25:32.584Z,23.30
2019-02-18T08:28:02.023Z,18.17
2019-02-18T08:30:31.481Z,18.20
2019-02-18T08:33:00.847Z,16.80
2019-02-18T08:35:30.307Z,17.63
2019-02-18T08:37:59.739Z,16.47
2019-02-18T08:40:29.202Z,16.20
2019-02-18T08:42:58.632Z,18.63
2019-02-18T08:45:28.090Z,16.23
2019-02-18T08:47:57.544Z,17.70
2019-02-18T08:50:27.003Z,19.43
2019-02-18T08:52:56.445Z,17.10
2019-02-18T08:55:25.908Z,18.43
2019-02-18T08:57:55.342Z,21.37
2019-02-18T09:00:24.815Z,20.60
2019-02-18T09:02:54.297Z,22.83
2019-02-18T09:05:23.795Z,21.70
2019-02-18T09:07:53.364Z,21.73
2019-02-18T09:10:32.763Z,18.17
2019-02-18T09:12:53.879Z,23.10
2019-02-18T09:15:23.331Z,18.43
2019-02-18T09:17:52.782Z,16.80
2019-02-18T09:20:22.222Z,20.17
2019-02-18T09:22:56.279Z,18.03
2019-02-18T09:25:30.052Z,24.60
2019-02-18T09:27:59.504Z,20.00
2019-02-18T09:30:30.593Z,17.23
2019-02-18T09:33:00.059Z,18.77
2019-02-18T09:35:29.494Z,18.47
2019-02-18T09:37:58.954Z,17.93
2019-02-18T09:40:28.387Z,14.77
2019-02-18T09:42:57.847Z,16.60
2019-02-18T09:45:27.283Z,16.13
2019-02-18T09:47:56.899Z,15.77
2019-02-18T09:50:26.398Z,18.27
2019-02-18T09:52:55.939Z,15.60
2019-02-18T09:55:25.315Z,16.00
2019-02-18T09:57:54.771Z,17.33
2019-02-18T10:00:24.214Z,15.83
2019-02-18T10:02:53.684Z,17.07
2019-02-18T10:05:23.137Z,17.27
2019-02-18T10:07:52.600Z,14.53
2019-02-18T10:10:22.045Z,15.63
2019-02-18T10:12:51.511Z,15.53
2019-02-18T10:15:20.968Z,16.50
2019-02-18T10:17:51.392Z,15.90
2019-02-18T10:20:20.830Z,14.00
2019-02-18T10:22:50.291Z,14.95
2019-02-18T10:25:19.739Z,15.32
2019-02-18T10:27:49.202Z,14.53
2019-02-18T10:30:20.676Z,18.95
2019-02-18T10:32:49.740Z,16.45
2019-02-18T10:35:19.183Z,15.72
2019-02-18T10:37:54.861Z,13.78
2019-02-18T10:40:19.716Z,14.90
2019-02-18T10:42:49.182Z,12.58
2019-02-18T10:45:18.632Z,13.03
2019-02-18T10:47:48.090Z,13.32
2019-02-18T10:50:17.534Z,16.42
2019-02-18T10:52:47.003Z,14.40
2019-02-18T10:55:16.844Z,12.50
2019-02-18T10:57:46.310Z,13.70
2019-02-18T11:00:16.905Z,14.18
2019-02-18T11:02:46.362Z,13.83
2019-02-18T11:05:15.796Z,16.25
2019-02-18T11:07:45.267Z,19.15
2019-02-18T11:10:16.922Z,14.65
2019-02-18T11:12:47.628Z,14.50
2019-02-18T11:15:17.238Z,16.85
2019-02-18T11:17:47.104Z,17.17
2019-02-18T11:20:16.551Z,14.95
2019-02-18T11:22:46.015Z,15.13
2019-02-18T11:25:16.097Z,15.83
2019-02-18T11:27:45.555Z,14.78
2019-02-18T11:30:16.911Z,17.25
2019-02-18T11:32:46.435Z,14.95
2019-02-18T11:35:15.875Z,16.07
2019-02-18T11:37:45.356Z,19.48
2019-02-18T11:40:17.218Z,13.22
2019-02-18T11:42:46.680Z,16.20
2019-02-18T11:45:16.981Z,15.38
2019-02-18T11:47:46.435Z,18.82
2019-02-18T11:50:16.150Z,14.33
2019-02-18T11:52:45.618Z,15.10
2019-02-18T11:55:15.227Z,14.40
2019-02-18T11:57:45.091Z,13.72
2019-02-18T12:00:15.670Z,14.28
2019-02-18T12:02:45.270Z,13.30
2019-02-18T12:05:14.712Z,19.60
2019-02-18T12:07:44.175Z,15.85
2019-02-18T12:10:14.251Z,13.95
2019-02-18T12:12:44.012Z,15.63
2019-02-18T12:15:14.798Z,14.93
2019-02-18T12:17:44.262Z,12.93
2019-02-18T12:20:14.751Z,13.35
2019-02-18T12:22:44.278Z,16.55
2019-02-18T12:25:14.692Z,12.80
2019-02-18T12:27:44.447Z,15.40
2019-02-18T12:30:15.530Z,15.20
2019-02-18T12:32:45.062Z,18.55
2019-02-18T12:35:14.508Z,18.25
2019-02-18T12:37:43.976Z,13.60
2019-02-18T12:40:16.327Z,16.20
2019-02-18T12:42:46.862Z,14.33
2019-02-18T12:45:16.303Z,17.80
2019-02-18T12:47:45.767Z,18.45
2019-02-18T12:50:15.278Z,15.85
2019-02-18T12:52:44.741Z,16.05
2019-02-18T12:55:14.822Z,19.30
2019-02-18T12:57:44.443Z,17.45
2019-02-18T13:00:15.154Z,15.15
2019-02-18T13:02:45.242Z,16.87
2019-02-18T13:05:14.883Z,16.17
2019-02-18T13:07:44.363Z,17.32
2019-02-18T13:10:13.980Z,14.70
2019-02-18T13:12:43.855Z,17.10
2019-02-18T13:15:18.135Z,18.57
2019-02-18T13:17:47.635Z,16.23
2019-02-18T13:20:17.171Z,20.25
2019-02-18T13:22:46.619Z,16.20
2019-02-18T13:25:16.091Z,16.67
2019-02-18T13:27:45.835Z,17.05
2019-02-18T13:30:17.621Z,17.52
2019-02-18T13:32:47.138Z,17.85
2019-02-18T13:35:16.663Z,18.67
2019-02-18T13:37:46.170Z,18.60
2019-02-18T13:40:16.682Z,17.07
2019-02-18T13:42:46.523Z,17.77
2019-02-18T13:45:15.988Z,18.00
2019-02-18T13:47:45.435Z,16.73
2019-02-18T13:50:15.168Z,17.82
2019-02-18T13:52:44.613Z,18.87
2019-02-18T13:55:14.546Z,17.87
2019-02-18T13:57:44.291Z,17.23
2019-02-18T14:00:18.142Z,19.05
2019-02-18T14:02:48.125Z,19.77
2019-02-18T14:05:18.937Z,14.87
2019-02-18T14:07:49.350Z,17.10
2019-02-18T14:10:19.887Z,16.95
2019-02-18T14:12:49.471Z,16.70
2019-02-18T14:15:18.942Z,17.45
2019-02-18T14:17:48.384Z,20.30
2019-02-18T14:20:18.590Z,16.90
2019-02-18T14:22:48.030Z,16.02
2019-02-18T14:25:17.808Z,13.83
2019-02-18T14:27:47.328Z,19.17
2019-02-18T14:30:17.929Z,13.95
2019-02-18T14:32:47.372Z,15.98
2019-02-18T14:35:20.233Z,19.42
2019-02-18T14:37:50.447Z,16.82
2019-02-18T14:40:21.291Z,19.30
2019-02-18T14:42:50.738Z,19.17
2019-02-18T14:45:20.214Z,16.45
2019-02-18T14:47:49.723Z,14.63
2019-02-18T14:50:19.333Z,15.63
2019-02-18T14:52:50.218Z,13.05
2019-02-18T14:55:19.748Z,13.20
2019-02-18T14:57:49.193Z,15.63
2019-02-18T15:00:21.635Z,15.55
2019-02-18T15:02:53.575Z,14.50
2019-02-18T15:05:23.590Z,14.85
2019-02-18T15:07:53.033Z,17.70
2019-02-18T15:10:22.564Z,14.85
2019-02-18T15:12:52.083Z,14.95
2019-02-18T15:15:21.638Z,17.20
2019-02-18T15:17:51.083Z,13.95
2019-02-18T15:20:20.948Z,15.53
2019-02-18T15:22:50.468Z,21.85
2019-02-18T15:25:20.010Z,17.32
2019-02-18T15:27:49.460Z,14.20
2019-02-18T15:30:18.914Z,19.40
2019-02-18T15:32:48.369Z,19.70
2019-02-18T15:35:18.209Z,18.98
2019-02-18T15:37:47.649Z,13.18
2019-02-18T15:40:17.779Z,16.25
2019-02-18T15:42:48.299Z,18.35
2019-02-18T15:45:17.793Z,15.53
2019-02-18T15:47:47.207Z,16.37
2019-02-18T15:50:16.676Z,19.15
2019-02-18T15:52:46.199Z,17.82
2019-02-18T15:55:15.803Z,20.48
2019-02-18T15:57:45.245Z,15.30
2019-02-18T16:00:20.240Z,20.00
2019-02-18T16:02:50.087Z,19.45
2019-02-18T16:05:19.559Z,13.75
2019-02-18T16:07:48.999Z,16.45
2019-02-18T16:10:18.479Z,15.88
2019-02-18T16:12:50.909Z,22.52
2019-02-18T16:15:18.999Z,18.35
2019-02-18T16:17:48.443Z,22.05
2019-02-18T16:20:17.913Z,22.52
2019-02-18T16:22:47.359Z,21.70
2019-02-18T16:25:24.163Z,21.90
2019-02-18T16:27:53.597Z,17.93
2019-02-18T16:30:23.467Z,19.00
2019-02-18T16:32:52.915Z,20.50
2019-02-18T16:35:22.387Z,24.03
2019-02-18T16:37:51.824Z,22.20
2019-02-18T16:40:21.690Z,20.03
2019-02-18T16:42:58.927Z,22.20
2019-02-18T16:45:22.221Z,19.00
2019-02-18T16:47:51.730Z,22.63
2019-02-18T16:50:21.211Z,21.80
2019-02-18T16:52:50.717Z,22.87
2019-02-18T16:55:20.254Z,21.67
2019-02-18T16:57:50.019Z,28.43
2019-02-18T17:00:21.247Z,23.47
2019-02-18T17:02:51.095Z,25.57
2019-02-18T17:05:20.728Z,20.73
2019-02-18T17:07:50.195Z,21.57
2019-02-18T17:10:19.643Z,23.30
2019-02-18T17:12:49.504Z,24.13
2019-02-18T17:15:18.943Z,21.07
2019-02-18T17:17:48.410Z,27.00
2019-02-18T17:20:17.850Z,24.00
2019-02-18T17:22:47.313Z,24.67
2019-02-18T17:25:16.811Z,24.00
2019-02-18T17:27:46.579Z,27.63
2019-02-18T17:30:16.495Z,29.43
2019-02-18T17:32:45.951Z,24.17
2019-02-18T17:35:15.664Z,25.53
2019-02-18T17:37:46.190Z,25.23
2019-02-18T17:40:15.648Z,27.70
2019-02-18T17:42:45.389Z,23.33
2019-02-18T17:45:16.667Z,25.83
2019-02-18T17:47:46.123Z,28.90
2019-02-18T17:50:16.504Z,24.17
2019-02-18T17:52:47.296Z,22.53
2019-02-18T17:55:18.427Z,27.63
2019-02-18T17:57:47.839Z,26.40
2019-02-18T18:00:23.447Z,25.20
2019-02-18T18:02:52.908Z,25.10
2019-02-18T18:05:22.351Z,24.07
2019-02-18T18:07:51.821Z,22.37
2019-02-18T18:10:21.630Z,25.13
2019-02-18T18:12:51.086Z,23.60
2019-02-18T18:15:20.908Z,27.00
2019-02-18T18:17:50.375Z,23.13
2019-02-18T18:20:19.807Z,24.67
2019-02-18T18:22:49.350Z,27.40
2019-02-18T18:25:18.786Z,20.87
2019-02-18T18:27:48.246Z,23.67
2019-02-18T18:30:19.126Z,23.60
2019-02-18T18:32:48.593Z,22.47
2019-02-18T18:35:18.024Z,27.90
2019-02-18T18:37:47.488Z,22.90
2019-02-18T18:40:20.658Z,21.13
2019-02-18T18:42:50.115Z,22.47
2019-02-18T18:45:20.090Z,24.17
2019-02-18T18:47:49.626Z,24.47
2019-02-18T18:50:22.914Z,25.70
2019-02-18T18:52:52.435Z,22.50
2019-02-18T18:55:21.891Z,24.23
2019-02-18T18:57:51.363Z,21.00
2019-02-18T19:00:24.034Z,22.37
2019-02-18T19:02:53.637Z,24.67
2019-02-18T19:05:23.374Z,22.40
2019-02-18T19:07:53.011Z,24.30
2019-02-18T19:10:22.622Z,24.97
2019-02-18T19:12:52.104Z,19.13
2019-02-18T19:15:21.562Z,20.80
2019-02-18T19:17:51.011Z,22.20
2019-02-18T19:20:20.471Z,21.57
2019-02-18T19:22:49.904Z,23.27
2019-02-18T19:25:19.366Z,21.37
2019-02-18T19:27:48.801Z,20.23
2019-02-18T19:30:30.786Z,21.00
2019-02-18T19:33:00.216Z,24.47
2019-02-18T19:35:29.670Z,21.20
2019-02-18T19:37:59.112Z,20.03
2019-02-18T19:40:28.575Z,22.27
2019-02-18T19:42:58.010Z,22.97
2019-02-18T19:45:28.749Z,25.23
2019-02-18T19:47:58.187Z,18.20
2019-02-18T19:50:27.646Z,18.77
2019-02-18T19:52:57.075Z,22.87
2019-02-18T19:55:26.543Z,19.03
2019-02-18T19:57:55.976Z,15.87
2019-02-18T20:00:25.571Z,19.90
2019-02-18T20:02:55.000Z,20.80
2019-02-18T20:05:24.464Z,19.03
2019-02-18T20:07:53.968Z,17.00
2019-02-18T20:10:23.498Z,19.20
2019-02-18T20:12:53.230Z,18.63
2019-02-18T20:15:22.687Z,17.03
2019-02-18T20:17:52.118Z,20.10
2019-02-18T20:20:21.574Z,21.03
2019-02-18T20:22:51.007Z,19.67
2019-02-18T20:25:20.470Z,19.67
2019-02-18T20:27:50.208Z,22.00
2019-02-18T20:30:19.667Z,20.63
2019-02-18T20:32:49.116Z,18.63
2019-02-18T20:35:18.590Z,22.77
2019-02-18T20:37:48.027Z,21.03
2019-02-18T20:40:17.562Z,18.97
2019-02-18T20:42:47.067Z,20.40
2019-02-18T20:45:16.527Z,23.10
2019-02-18T20:47:46.937Z,19.07
2019-02-18T20:50:16.455Z,23.67
2019-02-18T20:52:45.965Z,20.47
2019-02-18T20:55:15.963Z,21.97
2019-02-18T20:57:45.477Z,22.20
2019-02-18T21:00:21.121Z,19.17
2019-02-18T21:02:50.561Z,21.10
2019-02-18T21:05:20.014Z,19.43
2019-02-18T21:07:49.446Z,20.40
2019-02-18T21:10:24.149Z,18.50
2019-02-18T21:12:53.803Z,21.23
2019-02-18T21:15:23.259Z,17.83
2019-02-18T21:17:52.693Z,20.67
2019-02-18T21:20:22.150Z,22.10
2019-02-18T21:22:51.794Z,20.20
2019-02-18T21:25:21.249Z,18.73
2019-02-18T21:27:50.683Z,18.20
2019-02-18T21:30:21.206Z,19.57
2019-02-18T21:32:50.654Z,18.03
2019-02-18T21:35:20.112Z,16.93
2019-02-18T21:37:49.551Z,15.37
2019-02-18T21:40:19.011Z,19.97
2019-02-18T21:42:48.525Z,20.43
2019-02-18T21:45:17.975Z,16.57
2019-02-18T21:47:47.402Z,16.77
2019-02-18T21:50:16.864Z,15.73
2019-02-18T21:52:46.314Z,18.90
2019-02-18T21:55:15.770Z,18.97
2019-02-18T21:57:45.199Z,17.87
2019-02-18T22:00:18.998Z,14.70
2019-02-18T22:02:48.498Z,21.10
2019-02-18T22:05:19.395Z,17.07
2019-02-18T22:07:48.825Z,16.37
2019-02-18T22:10:19.372Z,16.30
2019-02-18T22:12:49.772Z,14.60
2019-02-18T22:15:19.231Z,20.60
2019-02-18T22:17:48.683Z,13.77
2019-02-18T22:20:18.415Z,16.20
2019-02-18T22:22:47.873Z,16.93
2019-02-18T22:25:17.307Z,13.47
2019-02-18T22:27:47.837Z,14.53
2019-02-18T22:30:17.336Z,22.93
2019-02-18T22:32:46.792Z,17.60
2019-02-18T22:35:16.427Z,16.13
2019-02-18T22:37:45.947Z,17.00
2019-02-18T22:40:15.449Z,18.60
2019-02-18T22:42:44.903Z,13.83
2019-02-18T22:45:14.402Z,16.57
2019-02-18T22:47:43.869Z,14.53
2019-02-18T22:50:13.598Z,21.53
2019-02-18T22:52:43.063Z,14.83
2019-02-18T22:55:12.492Z,14.57
2019-02-18T22:57:41.939Z,16.70
2019-02-18T23:00:43.071Z,13.60
2019-02-18T23:03:14.143Z,13.30
2019-02-18T23:05:43.662Z,19.93
2019-02-18T23:08:13.120Z,11.80
2019-02-18T23:10:42.628Z,17.30
2019-02-18T23:13:12.083Z,13.00
2019-02-18T23:15:41.614Z,17.00
2019-02-18T23:18:12.021Z,14.10
2019-02-18T23:20:41.450Z,13.00
2019-02-18T23:23:10.938Z,18.93
2019-02-18T23:25:40.373Z,14.60
2019-02-18T23:28:09.905Z,13.27
2019-02-18T23:30:39.640Z,15.07
2019-02-18T23:33:10.155Z,13.13
2019-02-18T23:35:39.594Z,16.00
2019-02-18T23:38:09.115Z,14.57
2019-02-18T23:40:38.552Z,16.00
2019-02-18T23:43:08.011Z,15.53
2019-02-18T23:45:37.439Z,14.23
2019-02-18T23:48:06.902Z,12.77
2019-02-18T23:50:36.326Z,16.10
2019-02-18T23:53:05.711Z,15.13
2019-02-18T23:55:35.149Z,15.07
2019-02-18T23:58:04.618Z,16.00
